KMFD/MFD METAR and TAF weather

Enter ICAO airport designator
Station Type Date Time Source
KMFD METAR 2019/08/26 06:52 UTC NOAA

KMFD 260652Z AUTO 14009KT 10SM CLR 16/11 A3009 RMK AO2 SLP182 T01610111


Station Type Date Time Source
KMFD Decoded METAR 2019/08/26 06:52 UTC NOAA

Station name not available
Aug 26, 2019 - 02:52 AM EDT / 2019.08.26 0652 UTC
Wind: from the SE (140 degrees) at 10 MPH (9 KT):0
Visibility: 10 mile(s):0
Sky conditions: clear
Temperature: 61.0 F (16.1 C)
Dew Point: 52.0 F (11.1 C)
Relative Humidity: 72%
Pressure (altimeter): 30.09 in. Hg (1018 hPa)
ob: KMFD 260652Z AUTO 14009KT 10SM CLR 16/11 A3009 RMK AO2 SLP182 T01610111
cycle: 7

Station Type Date Time Source
KMFD TAF 2019/08/26 06:28 UTC NOAA

TAF KMFD 260526Z 2606/2706 13008KT P6SM SCT250
FM261600 14012G22KT P6SM SCT080 BKN250
FM262100 15012G22KT P6SM SCT035 OVC080 PROB30 2621/2623 4SM -SHRA BR BKN035
FM270000 15015G25KT 4SM -SHRA BR SCT010 OVC030
FM270500 16012G22KT P6SM SCT008 BKN015

Example: see airport list